Terminal Aerodrome Forecast
Issued by NWS Pueblo, CO

Home | Current Version | Previous Version | Text Only | Print | Product List | Glossary On
Versions: 1 2 3 4 5 6 7 8 9 10 11 12 13 14 15 16 17 18 19 20 21 22 23 24 25 26 27 28 29
000
FTUS45 KPUB 221940 AAA
TAFCOS
TAF AMD
KCOS 221940Z 2220/2318 11015KT P6SM SCT100
     FM222000 13014KT P6SM VCTS SCT100CB BKN150
      TEMPO 2221/2224 VRB20G30KT BKN100CB
     FM230200 14007KT P6SM SCT120 BKN200
     FM230500 05006KT P6SM FEW140 SCT200
     FM231600 14008KT P6SM SCT250=

USA.gov is the U.S. government's official web portal to all federal, state and local government web resources and services.